TimeICT,TemperatureF,Dew PointF,Humidity,Sea Level PressureIn,VisibilityMPH,Wind Direction,Wind SpeedMPH,Gust SpeedMPH,PrecipitationIn,Events,Conditions,WindDirDegrees,DateUTC
12:00 AM,77.0,68.0,74,29.83,3.7,North,3.5,-,N/A,,Unknown,350,2013-12-10 17:00:00
12:30 AM,77.0,68.0,74,29.83,3.7,NNW,5.8,-,N/A,,Unknown,340,2013-12-10 17:30:00
1:00 AM,76,69,72,29.83,4,NNW,3.5,,,,Mist,340,2013-12-10 18:00:00
1:00 AM,77.0,68.0,74,29.83,3.7,NNW,3.5,-,N/A,,Unknown,340,2013-12-10 18:00:00
1:30 AM,75.2,68.0,78,29.83,3.7,North,3.5,-,N/A,,Unknown,10,2013-12-10 18:30:00
2:00 AM,75.2,68.0,78,29.80,3.7,North,3.5,-,N/A,,Unknown,360,2013-12-10 19:00:00
2:30 AM,75.2,68.0,78,29.80,3.1,North,3.5,-,N/A,,Mist,10,2013-12-10 19:30:00
3:00 AM,73.4,68.0,83,29.77,3.1,Calm,Calm,-,N/A,,Mist,0,2013-12-10 20:00:00
3:30 AM,75.2,68.0,78,29.77,3.1,Calm,Calm,-,N/A,,Mist,0,2013-12-10 20:30:00
4:00 AM,73,68,81,29.80,3,Calm,Calm,,,,Mist,,2013-12-10 21:00:00
4:00 AM,73.4,68.0,83,29.77,3.1,Calm,Calm,-,N/A,,Mist,0,2013-12-10 21:00:00
4:30 AM,73.4,68.0,83,29.80,2.5,Calm,Calm,-,N/A,,Mist,0,2013-12-10 21:30:00
5:00 AM,73.4,68.0,83,29.80,2.5,Calm,Calm,-,N/A,,Mist,0,2013-12-10 22:00:00
5:30 AM,73.4,68.0,83,29.80,3.1,ENE,3.5,-,N/A,,Mist,60,2013-12-10 22:30:00
6:00 AM,73.4,66.2,78,29.80,3.1,North,3.5,-,N/A,,Mist,360,2013-12-10 23:00:00
6:30 AM,73.4,66.2,78,29.83,2.5,Calm,Calm,-,N/A,,Mist,0,2013-12-10 23:30:00
7:00 AM,73,66,72,29.85,2,Calm,Calm,,,,Mist,,2013-12-11 00:00:00
7:00 AM,73.4,66.2,78,29.83,1.9,Calm,Calm,-,N/A,,Mist,0,2013-12-11 00:00:00
7:30 AM,73.4,66.2,78,29.86,2.2,Calm,Calm,-,N/A,,Mist,0,2013-12-11 00:30:00
8:00 AM,75.2,68.0,78,29.86,2.5,NW,2.3,-,N/A,,Mist,310,2013-12-11 01:00:00
8:30 AM,75.2,68.0,78,29.86,2.5,Calm,Calm,-,N/A,,Mist,0,2013-12-11 01:30:00
9:00 AM,77.0,69.8,78,29.89,2.5,East,2.3,-,N/A,,Mist,100,2013-12-11 02:00:00
9:30 AM,80.6,66.2,61,29.89,3.1,SSE,3.5,-,N/A,,Mist,150,2013-12-11 02:30:00
10:00 AM,81,67,55,29.91,4,East,4.6,,,,Haze,90,2013-12-11 03:00:00
10:00 AM,80.6,68.0,65,29.89,3.7,East,4.6,-,N/A,,Unknown,90,2013-12-11 03:00:00
10:30 AM,84.2,66.2,55,29.89,5.0,SSE,8.1,-,N/A,,Unknown,150,2013-12-11 03:30:00
11:00 AM,86.0,66.2,51,29.86,5.6,East,9.2,-,N/A,,Unknown,90,2013-12-11 04:00:00
11:30 AM,86.0,66.2,51,29.86,-9999.0,East,3.5,-,N/A,,Clear,90,2013-12-11 04:30:00
12:00 PM,87.8,62.6,43,29.83,-9999.0,ENE,9.2,-,N/A,,Clear,70,2013-12-11 05:00:00
12:30 PM,87.8,62.6,43,29.83,-9999.0,East,8.1,-,N/A,,Clear,100,2013-12-11 05:30:00
1:00 PM,88,66,38,29.83,6,East,5.8,,,,Clear,100,2013-12-11 06:00:00
1:00 PM,87.8,66.2,49,29.83,-9999.0,East,5.8,-,N/A,,Clear,100,2013-12-11 06:00:00
1:30 PM,87.8,66.2,49,29.80,-9999.0,Calm,Calm,-,N/A,,Clear,0,2013-12-11 06:30:00
2:00 PM,89.6,64.4,43,29.77,6.2,ENE,8.1,-,N/A,,Scattered Clouds,60,2013-12-11 07:00:00
2:30 PM,89.6,64.4,43,29.77,6.2,SE,3.5,-,N/A,,Scattered Clouds,130,2013-12-11 07:30:00
3:00 PM,89.6,64.4,43,29.77,6.2,East,3.5,-,N/A,,Scattered Clouds,90,2013-12-11 08:00:00
3:30 PM,89.6,64.4,43,29.74,6.2,NNE,2.3,-,N/A,,Scattered Clouds,30,2013-12-11 08:30:00
4:00 PM,92,65,31,29.77,6,East,6.9,,,,Scattered Clouds,100,2013-12-11 09:00:00
4:00 PM,91.4,64.4,41,29.74,6.2,East,6.9,-,N/A,,Scattered Clouds,100,2013-12-11 09:00:00
4:30 PM,89.6,66.2,46,29.74,6.2,SSE,2.3,-,N/A,,Scattered Clouds,150,2013-12-11 09:30:00
5:00 PM,87.8,66.2,49,29.77,6.2,ENE,2.3,-,N/A,,Scattered Clouds,60,2013-12-11 10:00:00
5:30 PM,87.8,64.4,46,29.77,5.6,East,2.3,-,N/A,,Unknown,90,2013-12-11 10:30:00
6:00 PM,86.0,64.4,48,29.77,5.0,ESE,2.3,-,N/A,,Unknown,120,2013-12-11 11:00:00
6:30 PM,86.0,64.4,48,29.77,4.3,East,2.3,-,N/A,,Unknown,100,2013-12-11 11:30:00
7:00 PM,84,65,43,29.81,4,East,2.3,,,,Haze,90,2013-12-11 12:00:00
7:00 PM,84.2,64.4,51,29.80,4.3,East,2.3,-,N/A,,Unknown,90,2013-12-11 12:00:00
7:30 PM,84.2,66.2,55,29.80,3.7,North,4.6,-,N/A,,Unknown,350,2013-12-11 12:30:00
8:00 PM,82.4,66.2,58,29.80,3.7,North,5.8,-,N/A,,Unknown,10,2013-12-11 13:00:00
8:30 PM,82.4,68.0,62,29.83,3.7,North,5.8,-,N/A,,Unknown,350,2013-12-11 13:30:00
9:00 PM,80.6,68.0,65,29.83,3.7,North,4.6,-,N/A,,Unknown,360,2013-12-11 14:00:00
9:30 PM,80.6,68.0,65,29.83,3.7,North,4.6,-,N/A,,Unknown,10,2013-12-11 14:30:00
10:00 PM,80.6,68.0,65,29.83,3.1,NNW,8.1,-,N/A,,Haze,340,2013-12-11 15:00:00
10:30 PM,80.6,68.0,65,29.83,3.1,NNW,5.8,-,N/A,,Scattered Clouds,340,2013-12-11 15:30:00
11:00 PM,80.6,68.0,65,29.83,3.1,North,3.5,-,N/A,,Scattered Clouds,350,2013-12-11 16:00:00
11:30 PM,78.8,68.0,69,29.80,3.1,North,3.5,-,N/A,,Scattered Clouds,350,2013-12-11 16:30:00